createdAt,value
2023-03-06T00:01:54.462Z,100010.22
2023-03-06T00:04:26.100Z,100004.09
2023-03-06T00:06:58.243Z,100002.03
2023-03-06T00:09:30.166Z,100008.56
2023-03-06T00:12:03.413Z,100000.50
2023-03-06T00:14:35.280Z,99997.41
2023-03-06T00:17:07.233Z,99998.25
2023-03-06T00:19:39.071Z,99991.25
2023-03-06T00:22:13.770Z,99991.25
2023-03-06T00:24:46.411Z,99989.34
2023-03-06T00:27:19.378Z,99988.50
2023-03-06T00:29:55.059Z,99985.97
2023-03-06T00:32:27.986Z,99988.78
2023-03-06T00:35:00.172Z,99982.63
2023-03-06T00:37:32.030Z,99985.28
2023-03-06T00:40:05.864Z,99981.78
2023-03-06T00:42:39.639Z,99980.94
2023-03-06T00:45:13.946Z,99977.22
2023-03-06T00:47:46.313Z,99977.34
2023-03-06T00:50:16.740Z,99966.78
2023-03-06T00:52:49.032Z,99973.03
2023-03-06T00:55:20.792Z,99963.88
2023-03-06T00:57:53.734Z,99962.34
2023-03-06T01:00:26.454Z,99964.84
2023-03-06T01:02:58.387Z,99955.22
2023-03-06T01:05:30.513Z,99964.84
2023-03-06T01:08:02.150Z,99948.13
2023-03-06T01:10:34.700Z,99949.25
2023-03-06T01:13:11.950Z,99943.25
2023-03-06T01:15:44.474Z,99946.59
2023-03-06T01:18:16.353Z,99943.25
2023-03-06T01:20:48.234Z,99933.66
2023-03-06T01:23:20.108Z,99937.25
2023-03-06T01:25:52.252Z,99937.50
2023-03-06T01:28:25.317Z,99930.53
2023-03-06T01:30:58.696Z,99930.44
2023-03-06T01:33:30.593Z,99930.53
2023-03-06T01:36:04.775Z,99927.78
2023-03-06T01:38:37.978Z,99918.31
2023-03-06T01:41:15.526Z,99925.25
2023-03-06T01:43:50.414Z,99921.91
2023-03-06T01:46:42.058Z,99929.72
2023-03-06T01:49:22.110Z,99921.22
2023-03-06T01:52:01.105Z,99929.97
2023-03-06T01:54:40.436Z,99914.09
2023-03-06T01:57:20.142Z,99918.59
2023-03-06T01:59:59.656Z,99921.22
2023-03-06T02:02:31.865Z,99913.28
2023-03-06T02:05:06.906Z,99912.56
2023-03-06T02:07:39.838Z,99914.09
2023-03-06T02:10:14.102Z,99909.22
2023-03-06T02:12:46.728Z,99904.38
2023-03-06T02:15:24.775Z,99903.81
2023-03-06T02:17:59.206Z,99902.97
2023-03-06T02:20:40.523Z,99903.22
2023-03-06T02:23:25.008Z,99899.63
2023-03-06T02:26:00.770Z,99894.34
2023-03-06T02:28:32.644Z,99893.38
2023-03-06T02:31:04.605Z,99890.84
2023-03-06T02:33:37.136Z,99892.66
2023-03-06T02:36:15.041Z,99892.81
2023-03-06T02:38:52.106Z,99889.31
2023-03-06T02:43:58.101Z,99883.91
2023-03-06T02:46:31.393Z,99878.75
2023-03-06T02:49:04.399Z,99873.72
2023-03-06T02:51:35.976Z,99876.22
2023-03-06T02:54:07.969Z,99871.94
2023-03-06T02:56:40.907Z,99878.75
2023-03-06T02:59:13.206Z,99871.53
2023-03-06T03:01:44.840Z,99867.34
2023-03-06T03:04:16.870Z,99867.59
2023-03-06T03:06:51.258Z,99858.72
2023-03-06T03:09:23.136Z,99855.22
2023-03-06T03:11:56.108Z,99855.22
2023-03-06T03:14:29.614Z,99856.19
2023-03-06T03:17:01.612Z,99855.63
2023-03-06T03:19:33.508Z,99850.06
2023-03-06T03:22:05.420Z,99851.19
2023-03-06T03:24:37.431Z,99848.66
2023-03-06T03:27:10.859Z,99846.72
2023-03-06T03:29:42.742Z,99840.88
2023-03-06T03:32:14.470Z,99842.56
2023-03-06T03:34:46.433Z,99833.91
2023-03-06T03:37:19.854Z,99841.72
2023-03-06T03:39:51.666Z,99838.22
2023-03-06T03:42:24.634Z,99838.22
2023-03-06T03:44:56.797Z,99834.75
2023-03-06T03:47:28.979Z,99829.47
2023-03-06T03:50:00.839Z,99839.19
2023-03-06T03:52:32.746Z,99823.81
2023-03-06T03:55:04.988Z,99818.78
2023-03-06T03:57:39.163Z,99822.38
2023-03-06T04:00:16.258Z,99821.44
2023-03-06T04:02:48.732Z,99814.72
2023-03-06T04:05:21.152Z,99809.44
2023-03-06T04:07:53.049Z,99811.09
2023-03-06T04:10:25.081Z,99799.84
2023-03-06T04:12:58.091Z,99811.09
2023-03-06T04:15:30.010Z,99802.47
2023-03-06T04:18:01.919Z,99805.38
2023-03-06T04:20:33.918Z,99797.47
2023-03-06T04:23:05.775Z,99797.19
2023-03-06T04:25:37.703Z,99786.94
2023-03-06T04:28:11.988Z,99800.97
2023-03-06T04:30:44.152Z,99785.81
2023-03-06T04:33:15.764Z,99794.59
2023-03-06T04:35:47.706Z,99788.34
2023-03-06T04:38:19.347Z,99787.66
2023-03-06T04:40:51.096Z,99790.88
2023-03-06T04:43:24.339Z,99787.50
2023-03-06T04:45:56.230Z,99783.91
2023-03-06T04:48:28.192Z,99779.97
2023-03-06T04:51:00.083Z,99778.06
2023-03-06T04:53:32.764Z,99777.91
2023-03-06T04:56:04.526Z,99773.34
2023-03-06T04:58:37.958Z,99776.09
2023-03-06T05:01:11.919Z,99775.16
2023-03-06T05:03:43.525Z,99769.56
2023-03-06T05:06:15.429Z,99761.63
2023-03-06T05:08:47.270Z,99773.88
2023-03-06T05:11:19.145Z,99776.75
2023-03-06T05:13:52.560Z,99772.19
2023-03-06T05:16:24.606Z,99776.75
2023-03-06T05:18:56.572Z,99777.75
2023-03-06T05:21:28.427Z,99772.47
2023-03-06T05:24:00.354Z,99764.81
2023-03-06T05:26:32.438Z,99763.25
2023-03-06T05:29:06.554Z,99767.72
2023-03-06T05:31:38.194Z,99767.72
2023-03-06T05:34:10.664Z,99765.19
2023-03-06T05:36:42.388Z,99761.59
2023-03-06T05:39:14.437Z,99758.38
2023-03-06T05:41:46.231Z,99765.06
2023-03-06T05:44:19.377Z,99765.06
2023-03-06T05:46:52.270Z,99758.50
2023-03-06T05:49:24.238Z,99760.28
2023-03-06T05:51:56.050Z,99757.38
2023-03-06T05:54:27.814Z,99750.19
2023-03-06T05:56:59.920Z,99757.38
2023-03-06T05:59:33.690Z,99761.56
2023-03-06T06:02:05.853Z,99756.00
2023-03-06T06:04:37.974Z,99751.47
2023-03-06T06:07:13.612Z,99761.09
2023-03-06T06:09:46.254Z,99761.09
2023-03-06T06:12:18.684Z,99753.44
2023-03-06T06:14:51.949Z,99755.22
2023-03-06T06:17:23.802Z,99755.13
2023-03-06T06:19:56.000Z,99750.66
2023-03-06T06:22:28.075Z,99750.06
2023-03-06T06:24:59.831Z,99751.16
2023-03-06T06:27:31.787Z,99755.19
2023-03-06T06:30:04.899Z,99758.66
2023-03-06T06:32:36.938Z,99757.56
2023-03-06T06:35:10.409Z,99754.56
2023-03-06T06:37:44.719Z,99754.97
2023-03-06T06:40:29.823Z,99756.53
2023-03-06T06:43:07.874Z,99756.66
2023-03-06T06:45:42.866Z,99753.50
2023-03-06T06:48:21.285Z,99744.94
2023-03-06T06:50:59.136Z,99746.63
2023-03-06T06:56:27.957Z,99748.13
2023-03-06T06:59:15.695Z,99752.94
2023-03-06T07:01:55.166Z,99759.38
2023-03-06T07:04:37.206Z,99757.31
2023-03-06T07:07:11.271Z,99756.19
2023-03-06T07:09:43.267Z,99752.72
2023-03-06T07:12:15.208Z,99756.59
2023-03-06T07:14:48.364Z,99751.91
2023-03-06T07:17:21.370Z,99750.22
2023-03-06T07:19:53.277Z,99755.25
2023-03-06T07:22:25.194Z,99756.19
2023-03-06T07:24:57.015Z,99757.88
2023-03-06T07:27:30.272Z,99760.53
2023-03-06T07:30:02.278Z,99741.34
2023-03-06T07:32:35.321Z,99751.06
2023-03-06T07:35:19.849Z,99752.88
2023-03-06T07:37:52.791Z,99760.22
2023-03-06T07:40:25.737Z,99768.25
2023-03-06T07:43:12.934Z,99762.16
2023-03-06T07:45:56.202Z,99765.75
2023-03-06T07:48:29.682Z,99762.19
2023-03-06T07:51:03.629Z,99765.22
2023-03-06T07:53:36.261Z,99765.78
2023-03-06T07:56:11.146Z,99755.97
2023-03-06T07:58:46.033Z,99755.72
2023-03-06T08:01:20.889Z,99763.03
2023-03-06T08:03:55.173Z,99764.59
2023-03-06T08:06:29.699Z,99763.03
2023-03-06T08:09:02.671Z,99769.28
2023-03-06T08:11:34.961Z,99764.00
2023-03-06T08:14:06.796Z,99765.09
2023-03-06T08:16:38.795Z,99765.47
2023-03-06T08:19:13.201Z,99774.00
2023-03-06T08:21:45.161Z,99771.00
2023-03-06T08:24:19.455Z,99775.66
2023-03-06T08:26:51.066Z,99772.59
2023-03-06T08:29:22.936Z,99768.81
2023-03-06T08:31:54.880Z,99778.03
2023-03-06T08:34:29.188Z,99781.78
2023-03-06T08:37:01.061Z,99774.56
2023-03-06T08:39:32.901Z,99777.88
2023-03-06T08:42:04.805Z,99779.91
2023-03-06T08:44:36.762Z,99787.69
2023-03-06T08:47:09.123Z,99786.00
2023-03-06T08:49:42.094Z,99789.50
2023-03-06T08:52:14.738Z,99784.16
2023-03-06T08:54:46.612Z,99786.31
2023-03-06T08:57:18.449Z,99792.81
2023-03-06T08:59:50.374Z,99786.22
2023-03-06T09:02:22.558Z,99792.19
2023-03-06T09:04:55.734Z,99787.75
2023-03-06T09:07:27.648Z,99786.78
2023-03-06T09:10:02.175Z,99780.41
2023-03-06T09:12:43.894Z,99789.44
2023-03-06T09:15:23.743Z,99795.59
2023-03-06T09:17:55.649Z,99801.44
2023-03-06T09:20:28.935Z,99801.19
2023-03-06T09:23:00.882Z,99807.16
2023-03-06T09:25:32.841Z,99806.31
2023-03-06T09:28:11.222Z,99802.88
2023-03-06T09:30:45.338Z,99803.94
2023-03-06T09:33:18.532Z,99813.44
2023-03-06T09:35:55.642Z,99810.91
2023-03-06T09:38:29.967Z,99810.06
2023-03-06T09:41:12.916Z,99810.78
2023-03-06T09:43:49.093Z,99812.84
2023-03-06T09:46:30.693Z,99803.63
2023-03-06T09:49:17.456Z,99812.03
2023-03-06T09:52:01.297Z,99811.56
2023-03-06T09:54:46.028Z,99808.22
2023-03-06T09:57:27.718Z,99815.88
2023-03-06T10:00:06.317Z,99807.72
2023-03-06T10:02:46.557Z,99808.94
2023-03-06T10:05:24.137Z,99810.94
2023-03-06T10:08:06.396Z,99810.28
2023-03-06T10:10:47.997Z,99807.28
2023-03-06T10:13:31.562Z,99808.94
2023-03-06T10:16:11.185Z,99802.69
2023-03-06T10:18:43.764Z,99803.03
2023-03-06T10:21:34.550Z,99804.56
2023-03-06T10:24:21.072Z,99808.69
2023-03-06T10:27:05.510Z,99803.88
2023-03-06T10:30:01.543Z,99806.47
2023-03-06T10:32:49.150Z,99804.56
2023-03-06T10:35:30.393Z,99802.53
2023-03-06T10:38:14.113Z,99796.34
2023-03-06T10:40:55.778Z,99795.25
2023-03-06T10:43:28.460Z,99795.22
2023-03-06T10:46:00.581Z,99797.72
2023-03-06T10:48:36.067Z,99800.22
2023-03-06T10:51:21.061Z,99802.38
2023-03-06T10:53:56.293Z,99801.00
2023-03-06T10:56:33.175Z,99794.66
2023-03-06T10:59:09.224Z,99799.44
2023-03-06T11:01:43.184Z,99789.06
2023-03-06T11:04:26.136Z,99798.56
2023-03-06T11:07:21.267Z,99799.03
2023-03-06T11:10:06.335Z,99798.84
2023-03-06T11:12:41.674Z,99798.81
2023-03-06T11:15:25.694Z,99793.59
2023-03-06T11:18:02.895Z,99807.97
2023-03-06T11:20:51.538Z,99821.81
2023-03-06T11:23:36.185Z,99817.00
2023-03-06T11:26:31.734Z,99815.63
2023-03-06T11:29:27.073Z,99817.13
2023-03-06T11:32:08.324Z,99827.28
2023-03-06T11:34:49.931Z,99833.25
2023-03-06T11:37:34.676Z,99841.66
2023-03-06T11:40:18.528Z,99829.16
2023-03-06T11:43:00.190Z,99832.63
2023-03-06T11:45:44.111Z,99828.31
2023-03-06T11:48:26.270Z,99831.75
2023-03-06T11:51:15.829Z,99822.91
2023-03-06T11:53:50.425Z,99817.13
2023-03-06T11:56:39.609Z,99820.91
2023-03-06T11:59:36.778Z,99813.69
2023-03-06T12:02:30.388Z,99815.69
2023-03-06T12:05:24.227Z,99814.59
2023-03-06T12:08:10.775Z,99817.50
2023-03-06T12:10:52.115Z,99814.53
2023-03-06T12:13:41.324Z,99814.72
2023-03-06T12:16:48.279Z,99797.47
2023-03-06T12:19:49.840Z,99792.53
2023-03-06T12:22:36.397Z,99788.97
2023-03-06T12:25:26.879Z,99789.25
2023-03-06T12:28:25.978Z,99782.22
2023-03-06T12:31:31.519Z,99780.44
2023-03-06T12:34:19.085Z,99773.25
2023-03-06T12:37:02.377Z,99765.34
2023-03-06T12:39:54.365Z,99774.94
2023-03-06T12:42:43.326Z,99773.03
2023-03-06T12:45:28.555Z,99776.34
2023-03-06T12:48:02.474Z,99771.06
2023-03-06T12:50:37.150Z,99769.69
2023-03-06T12:53:27.278Z,99771.34
2023-03-06T12:56:02.511Z,99773.59
2023-03-06T12:58:54.820Z,99779.44
2023-03-06T13:01:55.488Z,99772.88
2023-03-06T13:05:01.264Z,99773.31
2023-03-06T13:07:53.982Z,99776.78
2023-03-06T13:10:33.599Z,99780.00
2023-03-06T13:13:26.109Z,99775.81
2023-03-06T13:16:23.098Z,99767.66
2023-03-06T13:19:04.915Z,99767.84
2023-03-06T13:22:16.451Z,99767.66
2023-03-06T13:24:49.479Z,99766.53
2023-03-06T13:28:00.910Z,99759.31
2023-03-06T13:30:48.119Z,99768.56
2023-03-06T13:33:58.739Z,99753.13
2023-03-06T13:36:39.419Z,99752.47
2023-03-06T13:39:13.994Z,99751.41
2023-03-06T13:41:57.085Z,99757.91
2023-03-06T13:44:56.021Z,99758.03
2023-03-06T13:48:19.512Z,99755.44
2023-03-06T13:50:48.829Z,99753.06
2023-03-06T13:54:01.736Z,99745.22
2023-03-06T13:57:18.715Z,99751.59
2023-03-06T14:00:26.722Z,99748.09
2023-03-06T14:03:52.089Z,99745.66
2023-03-06T14:07:05.555Z,99744.81
2023-03-06T14:09:43.594Z,99748.16
2023-03-06T14:12:24.959Z,99746.41
2023-03-06T14:15:04.826Z,99739.44
2023-03-06T14:17:39.123Z,99736.66
2023-03-06T14:20:21.992Z,99736.50
2023-03-06T14:23:14.090Z,99736.50
2023-03-06T14:25:54.975Z,99740.81
2023-03-06T14:28:30.030Z,99730.22
2023-03-06T14:31:06.886Z,99731.53
2023-03-06T14:33:45.874Z,99730.03
2023-03-06T14:36:21.832Z,99727.56
2023-03-06T14:38:57.992Z,99721.19
2023-03-06T14:41:35.322Z,99716.28
2023-03-06T14:44:17.867Z,99713.31
2023-03-06T14:46:52.763Z,99713.28
2023-03-06T14:49:27.231Z,99711.91
2023-03-06T14:52:01.787Z,99704.88
2023-03-06T14:54:37.593Z,99698.41
2023-03-06T14:57:20.014Z,99701.69
2023-03-06T14:59:59.454Z,99698.84
2023-03-06T15:02:34.059Z,99700.97
2023-03-06T15:05:16.125Z,99710.59
2023-03-06T15:07:48.109Z,99705.25
2023-03-06T15:10:29.311Z,99704.19
2023-03-06T15:13:19.725Z,99704.28
2023-03-06T15:16:01.360Z,99705.72
2023-03-06T15:18:38.875Z,99701.84
2023-03-06T15:21:11.360Z,99704.09
2023-03-06T15:23:46.240Z,99706.41
2023-03-06T15:26:36.932Z,99693.34
2023-03-06T15:29:24.732Z,99693.72
2023-03-06T15:32:14.026Z,99691.63
2023-03-06T15:34:47.144Z,99693.41
2023-03-06T15:37:29.773Z,99695.63
2023-03-06T15:40:22.296Z,99699.09
2023-03-06T15:42:54.754Z,99690.13
2023-03-06T15:45:32.003Z,99694.59
2023-03-06T15:48:15.615Z,99684.16
2023-03-06T15:50:48.763Z,99686.81
2023-03-06T15:53:20.762Z,99699.09
2023-03-06T15:55:54.001Z,99693.06
2023-03-06T15:58:29.607Z,99685.53
2023-03-06T16:01:01.264Z,99688.19
2023-03-06T16:03:33.250Z,99689.28
2023-03-06T16:06:06.296Z,99685.13
2023-03-06T16:08:38.333Z,99683.56
2023-03-06T16:11:10.203Z,99684.66
2023-03-06T16:13:42.123Z,99679.03
2023-03-06T16:16:22.236Z,99677.97
2023-03-06T16:18:54.201Z,99681.03
2023-03-06T16:21:28.035Z,99671.69
2023-03-06T16:24:00.380Z,99672.38
2023-03-06T16:26:36.728Z,99662.34
2023-03-06T16:29:11.041Z,99666.81
2023-03-06T16:31:42.619Z,99667.66
2023-03-06T16:34:14.534Z,99663.09
2023-03-06T16:36:48.573Z,99661.47
2023-03-06T16:39:23.495Z,99659.84
2023-03-06T16:41:58.123Z,99659.56
2023-03-06T16:44:31.393Z,99652.25
2023-03-06T16:47:06.203Z,99661.16
2023-03-06T16:49:38.841Z,99655.59
2023-03-06T16:52:14.611Z,99663.13
2023-03-06T16:54:46.412Z,99662.38
2023-03-06T16:57:19.654Z,99656.28
2023-03-06T16:59:51.537Z,99656.28
2023-03-06T17:02:23.430Z,99647.13
2023-03-06T17:04:55.176Z,99650.59
2023-03-06T17:07:29.438Z,99657.84
2023-03-06T17:10:01.397Z,99654.38
2023-03-06T17:12:33.088Z,99658.56
2023-03-06T17:15:08.211Z,99650.22
2023-03-06T17:17:40.217Z,99661.91
2023-03-06T17:20:16.040Z,99658.84
2023-03-06T17:22:49.111Z,99660.25
2023-03-06T17:25:21.271Z,99661.34
2023-03-06T17:27:52.894Z,99662.75
2023-03-06T17:30:24.914Z,99671.09
2023-03-06T17:32:58.199Z,99671.94
2023-03-06T17:35:32.849Z,99670.41
2023-03-06T17:38:06.076Z,99669.84
2023-03-06T17:40:39.314Z,99664.84
2023-03-06T17:43:11.209Z,99667.72
2023-03-06T17:45:43.164Z,99667.88
2023-03-06T17:48:15.292Z,99659.78
2023-03-06T17:50:56.371Z,99659.22
2023-03-06T17:53:32.623Z,99653.53
2023-03-06T17:56:06.126Z,99654.78
2023-03-06T17:58:38.113Z,99656.59
2023-03-06T18:01:18.116Z,99662.97
2023-03-06T18:03:52.694Z,99659.38
2023-03-06T18:06:27.473Z,99659.38
2023-03-06T18:09:01.929Z,99660.34
2023-03-06T18:11:34.192Z,99654.38
2023-03-06T18:14:06.198Z,99651.72
2023-03-06T18:16:38.365Z,99651.28
2023-03-06T18:19:10.882Z,99644.03
2023-03-06T18:21:43.102Z,99646.00
2023-03-06T18:24:16.876Z,99644.31
2023-03-06T18:26:48.757Z,99636.81
2023-03-06T18:29:20.652Z,99639.59
2023-03-06T18:31:53.143Z,99645.72
2023-03-06T18:34:26.092Z,99641.81
2023-03-06T18:36:57.776Z,99632.94
2023-03-06T18:39:30.801Z,99638.06
2023-03-06T18:42:03.154Z,99632.38
2023-03-06T18:44:35.002Z,99632.38
2023-03-06T18:47:07.756Z,99629.97
2023-03-06T18:49:40.556Z,99629.00
2023-03-06T18:52:13.340Z,99629.00
2023-03-06T18:54:49.900Z,99627.88
2023-03-06T18:57:21.711Z,99621.47
2023-03-06T18:59:55.222Z,99619.00
2023-03-06T19:02:27.299Z,99624.41
2023-03-06T19:04:59.244Z,99614.09
2023-03-06T19:07:31.130Z,99605.31
2023-03-06T19:10:04.582Z,99603.41
2023-03-06T19:12:41.518Z,99602.56
2023-03-06T19:15:14.101Z,99598.78
2023-03-06T19:17:49.346Z,99595.44
2023-03-06T19:20:21.314Z,99597.66
2023-03-06T19:22:54.935Z,99590.69
2023-03-06T19:25:28.368Z,99591.41
2023-03-06T19:28:00.629Z,99582.09
2023-03-06T19:30:32.728Z,99583.44
2023-03-06T19:33:04.652Z,99578.03
2023-03-06T19:35:38.780Z,99584.13
2023-03-06T19:38:11.040Z,99581.63
2023-03-06T19:40:51.640Z,99576.72
2023-03-06T19:43:24.119Z,99568.81
2023-03-06T19:45:56.395Z,99571.59
2023-03-06T19:48:28.469Z,99570.75
2023-03-06T19:51:03.582Z,99561.16
2023-03-06T19:53:36.254Z,99556.88
2023-03-06T19:56:12.936Z,99560.47
2023-03-06T19:58:44.977Z,99551.59
2023-03-06T20:01:20.296Z,99549.34
2023-03-06T20:03:56.129Z,99548.50
2023-03-06T20:06:30.230Z,99543.50
2023-03-06T20:09:04.820Z,99538.91
2023-03-06T20:11:38.306Z,99537.41
2023-03-06T20:14:13.106Z,99536.56
2023-03-06T20:16:46.075Z,99528.91
2023-03-06T20:19:19.057Z,99526.81
2023-03-06T20:21:51.110Z,99525.84
2023-03-06T20:24:23.069Z,99526.09
2023-03-06T20:26:57.698Z,99525.00
2023-03-06T20:29:29.472Z,99516.25
2023-03-06T20:32:01.956Z,99510.97
2023-03-06T20:34:33.701Z,99509.56
2023-03-06T20:37:05.737Z,99504.31
2023-03-06T20:39:38.517Z,99503.19
2023-03-06T20:42:14.281Z,99497.34
2023-03-06T20:44:46.280Z,99490.41
2023-03-06T20:47:18.369Z,99487.91
2023-03-06T20:49:50.059Z,99491.50
2023-03-06T20:52:22.076Z,99488.19
2023-03-06T20:54:53.858Z,99479.69
2023-03-06T20:57:27.121Z,99476.09
2023-03-06T20:59:59.176Z,99473.84
2023-03-06T21:02:31.015Z,99469.53
2023-03-06T21:05:03.083Z,99473.97
2023-03-06T21:07:35.133Z,99466.22
2023-03-06T21:10:08.164Z,99458.16
2023-03-06T21:12:42.332Z,99453.59
2023-03-06T21:15:15.052Z,99451.06
2023-03-06T21:17:47.034Z,99445.94
2023-03-06T21:20:19.140Z,99440.22
2023-03-06T21:22:51.976Z,99439.28
2023-03-06T21:25:23.726Z,99431.75
2023-03-06T21:27:58.772Z,99432.47
2023-03-06T21:30:30.981Z,99426.34
2023-03-06T21:33:03.881Z,99423.72
2023-03-06T21:35:40.361Z,99410.81
2023-03-06T21:38:14.073Z,99402.63
2023-03-06T21:40:46.065Z,99406.22
2023-03-06T21:43:21.004Z,99404.31
2023-03-06T21:45:57.406Z,99400.09
2023-03-06T21:48:30.095Z,99392.06
2023-03-06T21:51:11.718Z,99385.13
2023-03-06T21:53:44.755Z,99390.41
2023-03-06T21:56:28.918Z,99393.75
2023-03-06T21:59:02.630Z,99392.06
2023-03-06T22:01:35.920Z,99383.72
2023-03-06T22:04:08.670Z,99381.81
2023-03-06T22:06:41.943Z,99365.97
2023-03-06T22:09:17.302Z,99369.31
2023-03-06T22:11:49.270Z,99365.25
2023-03-06T22:14:22.577Z,99356.28
2023-03-06T22:16:56.752Z,99346.13
2023-03-06T22:19:29.255Z,99351.81
2023-03-06T22:22:01.126Z,99339.34
2023-03-06T22:24:32.847Z,99334.91
2023-03-06T22:27:04.966Z,99327.81
2023-03-06T22:29:38.417Z,99314.38
2023-03-06T22:32:12.030Z,99319.63
2023-03-06T22:34:44.247Z,99309.91
2023-03-06T22:37:16.108Z,99300.47
2023-03-06T22:39:48.484Z,99298.81
2023-03-06T22:42:20.370Z,99297.16
2023-03-06T22:44:53.388Z,99293.53
2023-03-06T22:47:25.326Z,99286.31
2023-03-06T22:49:57.120Z,99281.59
2023-03-06T22:52:29.103Z,99272.97
2023-03-06T22:55:01.032Z,99273.69
2023-03-06T22:57:32.930Z,99264.66
2023-03-06T23:00:07.795Z,99256.06
2023-03-06T23:02:39.945Z,99254.28
2023-03-06T23:05:12.821Z,99252.44
2023-03-06T23:07:44.890Z,99240.09
2023-03-06T23:10:16.504Z,99231.91
2023-03-06T23:12:48.224Z,99236.38
2023-03-06T23:15:21.262Z,99231.09
2023-03-06T23:17:53.699Z,99227.47
2023-03-06T23:20:25.613Z,99216.91
2023-03-06T23:22:58.099Z,99212.63
2023-03-06T23:25:30.073Z,99205.69
2023-03-06T23:28:02.021Z,99198.72
2023-03-06T23:30:35.057Z,99197.06
2023-03-06T23:33:07.104Z,99199.56
2023-03-06T23:35:39.973Z,99192.78
2023-03-06T23:38:11.961Z,99192.50
2023-03-06T23:40:44.906Z,99176.66
2023-03-06T23:43:16.904Z,99176.38
2023-03-06T23:45:59.697Z,99170.53
2023-03-06T23:48:32.903Z,99160.50
2023-03-06T23:51:09.280Z,99149.66
2023-03-06T23:53:41.269Z,99143.84
2023-03-06T23:56:15.337Z,99136.59
2023-03-06T23:58:47.127Z,99127.00
